Time;durP1;ratioP1;P1;durP2;ratioP2;P2;SDS_P1;SDS_P2;PMS_P1;PMS_P2;Temp;Humidity;BMP_temperature;BMP_pressure;BME280_temperature;BME280_humidity;BME280_pressure;Samples;Min_cycle;Max_cycle;Signal;HPM_P1;HPM_P2
2022/12/08 00:01:50;;;;;;;0.57;0.57;;;;;;;;;;1863327;77;26271;-38
2022/12/08 00:04:17;;;;;;;0.60;0.60;;;;;;;;;;1865962;77;26669;-38
2022/12/08 00:09:40;;;;;;;0.57;0.57;;;;;;;;;;1865629;76;26600;-41
2022/12/08 00:12:09;;;;;;;0.50;0.50;;;;;;;;;;1868137;77;26198;-36
2022/12/08 00:14:40;;;;;;;0.50;0.50;;;;;;;;;;1868068;77;26151;-55
2022/12/08 00:17:08;;;;;;;0.47;0.47;;;;;;;;;;1863131;76;26218;-39
2022/12/08 00:19:37;;;;;;;0.60;0.60;;;;;;;;;;1865362;76;26261;-39
2022/12/08 00:22:05;;;;;;;0.60;0.60;;;;;;;;;;1861933;77;26159;-38
2022/12/08 00:24:34;;;;;;;0.50;0.50;;;;;;;;;;1866958;76;26765;-39
2022/12/08 00:27:02;;;;;;;0.60;0.60;;;;;;;;;;1863802;76;27475;-40
2022/12/08 00:29:29;;;;;;;0.60;0.60;;;;;;;;;;1863962;76;26255;-44
2022/12/08 00:31:56;;;;;;;0.60;0.60;;;;;;;;;;1860386;77;26221;-39
2022/12/08 00:34:23;;;;;;;0.50;0.50;;;;;;;;;;1868231;77;26155;-37
2022/12/08 00:36:51;;;;;;;0.60;0.60;;;;;;;;;;1866537;76;26693;-40
2022/12/08 00:39:18;;;;;;;0.60;0.60;;;;;;;;;;1864635;77;26159;-36
2022/12/08 00:44:31;;;;;;;0.55;0.55;;;;;;;;;;1868346;76;26237;-43
2022/12/08 00:46:58;;;;;;;0.60;0.60;;;;;;;;;;1868358;76;26171;-37
2022/12/08 00:49:25;;;;;;;0.50;0.50;;;;;;;;;;1866681;76;26264;-39
2022/12/08 00:51:53;;;;;;;0.65;0.65;;;;;;;;;;1859807;77;26187;-47
2022/12/08 00:54:21;;;;;;;0.50;0.50;;;;;;;;;;1854688;77;26258;-54
2022/12/08 00:56:49;;;;;;;0.60;0.60;;;;;;;;;;1818993;78;26321;-38
2022/12/08 00:59:16;;;;;;;0.60;0.60;;;;;;;;;;1813982;78;26227;-41
2022/12/08 01:01:44;;;;;;;0.50;0.50;;;;;;;;;;1818811;78;26198;-40
2022/12/08 01:04:14;;;;;;;0.50;0.50;;;;;;;;;;1809478;78;26277;-41
2022/12/08 01:06:41;;;;;;;0.50;0.50;;;;;;;;;;1819404;77;26648;-37
2022/12/08 01:09:09;;;;;;;0.50;0.50;;;;;;;;;;1814741;78;26284;-36
2022/12/08 01:11:36;;;;;;;0.60;0.60;;;;;;;;;;1819854;78;26756;-40
2022/12/08 01:14:03;;;;;;;0.50;0.50;;;;;;;;;;1814441;78;26275;-47
2022/12/08 01:16:32;;;;;;;0.40;0.40;;;;;;;;;;1808192;78;26273;-40
2022/12/08 01:18:59;;;;;;;0.50;0.50;;;;;;;;;;1819546;78;26331;-44
2022/12/08 01:21:27;;;;;;;0.50;0.50;;;;;;;;;;1761748;79;26760;-40
2022/12/08 01:23:56;;;;;;;0.40;0.40;;;;;;;;;;1741201;82;26243;-43
2022/12/08 01:26:24;;;;;;;0.82;0.45;;;;;;;;;;1737872;82;26305;-37
2022/12/08 01:28:51;;;;;;;0.50;0.50;;;;;;;;;;1739985;82;26264;-37
2022/12/08 01:31:19;;;;;;;0.40;0.40;;;;;;;;;;1741175;82;26251;-40
2022/12/08 01:33:46;;;;;;;0.40;0.40;;;;;;;;;;1741198;82;26200;-36
2022/12/08 01:36:21;;;;;;;0.53;0.53;;;;;;;;;;1732051;81;26285;-36
2022/12/08 01:38:49;;;;;;;2.50;0.40;;;;;;;;;;1733299;81;26224;-37
2022/12/08 01:41:17;;;;;;;0.40;0.40;;;;;;;;;;1768857;79;26202;-42
2022/12/08 01:43:46;;;;;;;0.45;0.45;;;;;;;;;;1769540;79;26289;-43
2022/12/08 01:46:13;;;;;;;0.47;0.47;;;;;;;;;;1714595;79;26217;-41
2022/12/08 01:48:41;;;;;;;0.45;0.45;;;;;;;;;;1736641;81;26293;-43
2022/12/08 01:51:08;;;;;;;0.50;0.50;;;;;;;;;;1742155;80;26231;-41
2022/12/08 01:53:36;;;;;;;0.40;0.40;;;;;;;;;;1768523;79;26296;-43
2022/12/08 01:56:04;;;;;;;0.30;0.30;;;;;;;;;;1753999;79;26352;-38
2022/12/08 01:58:33;;;;;;;0.40;0.40;;;;;;;;;;1868169;76;26206;-38
2022/12/08 02:01:01;;;;;;;0.40;0.40;;;;;;;;;;1864046;77;26251;-38
2022/12/08 02:03:33;;;;;;;0.40;0.40;;;;;;;;;;1858712;76;26903;-38
2022/12/08 02:06:00;;;;;;;0.40;0.40;;;;;;;;;;1857784;75;26290;-44
2022/12/08 02:08:27;;;;;;;0.40;0.40;;;;;;;;;;1867727;76;26596;-45
2022/12/08 02:10:54;;;;;;;0.40;0.40;;;;;;;;;;1860070;77;26169;-45
2022/12/08 02:13:22;;;;;;;0.30;0.30;;;;;;;;;;1866508;76;26221;-40
2022/12/08 02:16:06;;;;;;;0.30;0.30;;;;;;;;;;1860245;77;26361;-40
2022/12/08 02:18:50;;;;;;;0.47;0.47;;;;;;;;;;1868372;76;26155;-42
2022/12/08 02:21:19;;;;;;;0.40;0.40;;;;;;;;;;1868174;77;26353;-37
2022/12/08 02:23:49;;;;;;;0.45;0.45;;;;;;;;;;1866997;76;26248;-39
2022/12/08 02:26:29;;;;;;;0.40;0.40;;;;;;;;;;1867397;77;27105;-41
2022/12/08 02:28:58;;;;;;;0.47;0.47;;;;;;;;;;1861393;77;26176;-40
2022/12/08 02:31:27;;;;;;;0.35;0.35;;;;;;;;;;1868292;76;26224;-39
2022/12/08 02:33:59;;;;;;;0.30;0.30;;;;;;;;;;1868182;77;26147;-37
2022/12/08 02:36:31;;;;;;;0.40;0.40;;;;;;;;;;1865690;76;26215;-38
2022/12/08 02:39:05;;;;;;;0.40;0.40;;;;;;;;;;1861083;77;26600;-40
2022/12/08 02:41:49;;;;;;;0.37;0.37;;;;;;;;;;1860625;76;26292;-38
2022/12/08 02:44:34;;;;;;;0.30;0.30;;;;;;;;;;1863357;77;26163;-37
2022/12/08 02:47:06;;;;;;;0.40;0.30;;;;;;;;;;1866550;77;26206;-38
2022/12/08 02:49:34;;;;;;;0.37;0.30;;;;;;;;;;1868040;76;26639;-36
2022/12/08 02:52:09;;;;;;;0.40;0.40;;;;;;;;;;1867858;77;26210;-37
2022/12/08 02:54:38;;;;;;;0.40;0.40;;;;;;;;;;1861767;77;26245;-36
2022/12/08 02:57:09;;;;;;;0.30;0.30;;;;;;;;;;1874122;76;27030;-45
2022/12/08 02:59:38;;;;;;;0.20;0.20;;;;;;;;;;1869686;76;26220;-36
2022/12/08 03:02:10;;;;;;;0.30;0.30;;;;;;;;;;1846734;76;26295;-40
2022/12/08 03:04:48;;;;;;;0.30;0.30;;;;;;;;;;1875210;76;26260;-39
2022/12/08 03:07:33;;;;;;;0.30;0.30;;;;;;;;;;1873158;76;26197;-41
2022/12/08 03:10:04;;;;;;;0.20;0.20;;;;;;;;;;1871952;76;26155;-40
2022/12/08 03:12:33;;;;;;;0.30;0.30;;;;;;;;;;1871714;76;26193;-37
2022/12/08 03:15:02;;;;;;;0.23;0.23;;;;;;;;;;1870166;76;26203;-37
2022/12/08 03:17:30;;;;;;;0.23;0.23;;;;;;;;;;1863096;75;26283;-44
2022/12/08 03:19:59;;;;;;;0.45;0.30;;;;;;;;;;1873257;75;26217;-38
2022/12/08 03:22:27;;;;;;;0.20;0.20;;;;;;;;;;1874431;76;26757;-39
2022/12/08 03:24:55;;;;;;;0.20;0.20;;;;;;;;;;1874662;76;26190;-41
2022/12/08 03:27:27;;;;;;;0.40;0.23;;;;;;;;;;1875396;76;26190;-36
2022/12/08 03:29:55;;;;;;;0.20;0.20;;;;;;;;;;1874447;76;26654;-39
2022/12/08 03:32:35;;;;;;;0.30;0.30;;;;;;;;;;1873285;76;26234;-36
2022/12/08 03:35:04;;;;;;;0.30;0.30;;;;;;;;;;1871888;76;26197;-40
2022/12/08 03:37:33;;;;;;;0.30;0.20;;;;;;;;;;1874280;76;26237;-38
2022/12/08 03:40:00;;;;;;;0.28;0.28;;;;;;;;;;1871588;76;26272;-37
2022/12/08 03:42:28;;;;;;;0.25;0.25;;;;;;;;;;1873305;76;26214;-37
2022/12/08 03:44:55;;;;;;;1.05;0.30;;;;;;;;;;1861907;76;26210;-48
2022/12/08 03:47:22;;;;;;;0.20;0.20;;;;;;;;;;1861004;76;26213;-37
2022/12/08 03:49:49;;;;;;;0.28;0.28;;;;;;;;;;1872847;76;26233;-37
2022/12/08 03:52:17;;;;;;;0.37;0.37;;;;;;;;;;1864632;76;26646;-36
2022/12/08 03:54:44;;;;;;;0.55;0.30;;;;;;;;;;1873574;76;26666;-39
2022/12/08 03:57:11;;;;;;;0.40;0.40;;;;;;;;;;1860546;76;26752;-39
2022/12/08 03:59:38;;;;;;;0.20;0.20;;;;;;;;;;1860100;77;26287;-42
2022/12/08 04:02:06;;;;;;;0.30;0.30;;;;;;;;;;1860053;77;26182;-47
2022/12/08 04:04:33;;;;;;;0.20;0.20;;;;;;;;;;1854926;77;26206;-40
2022/12/08 04:07:00;;;;;;;0.30;0.30;;;;;;;;;;1855151;76;26183;-46
2022/12/08 04:09:27;;;;;;;0.30;0.30;;;;;;;;;;1852251;77;26205;-42
2022/12/08 04:11:55;;;;;;;0.30;0.30;;;;;;;;;;1859934;77;26247;-38
2022/12/08 04:14:22;;;;;;;0.30;0.30;;;;;;;;;;1858500;77;26270;-40
2022/12/08 04:16:49;;;;;;;0.30;0.30;;;;;;;;;;1855882;77;26812;-42
2022/12/08 04:19:16;;;;;;;0.30;0.30;;;;;;;;;;1855258;76;27023;-39
2022/12/08 04:21:44;;;;;;;0.10;0.10;;;;;;;;;;1853960;77;26652;-37
2022/12/08 04:24:11;;;;;;;0.72;0.20;;;;;;;;;;1850476;77;26641;-39
2022/12/08 04:26:38;;;;;;;0.20;0.20;;;;;;;;;;1855056;77;26301;-37
2022/12/08 04:29:05;;;;;;;0.13;0.13;;;;;;;;;;1855846;77;26273;-37
2022/12/08 04:31:33;;;;;;;0.37;0.37;;;;;;;;;;1855081;77;26210;-41
2022/12/08 04:34:00;;;;;;;0.20;0.20;;;;;;;;;;1852229;77;26190;-40
2022/12/08 04:36:27;;;;;;;0.10;0.10;;;;;;;;;;1849624;77;26222;-41
2022/12/08 04:38:54;;;;;;;0.35;0.30;;;;;;;;;;1852542;77;26249;-42
2022/12/08 04:41:22;;;;;;;0.25;0.20;;;;;;;;;;1856305;77;26343;-44
2022/12/08 04:43:50;;;;;;;0.40;0.40;;;;;;;;;;1858621;77;26283;-41
2022/12/08 04:46:17;;;;;;;0.30;0.30;;;;;;;;;;1854560;77;26266;-39
2022/12/08 04:48:44;;;;;;;0.28;0.28;;;;;;;;;;1853731;77;26281;-37
2022/12/08 04:51:13;;;;;;;0.17;0.17;;;;;;;;;;1852625;77;26243;-37
2022/12/08 04:53:40;;;;;;;0.10;0.10;;;;;;;;;;1852805;77;26204;-41
2022/12/08 04:56:09;;;;;;;0.20;0.20;;;;;;;;;;1850282;77;26321;-39
2022/12/08 04:58:37;;;;;;;0.42;0.17;;;;;;;;;;1849757;77;26222;-41
2022/12/08 05:01:04;;;;;;;0.30;0.30;;;;;;;;;;1854422;77;26202;-40
2022/12/08 05:03:32;;;;;;;0.53;0.30;;;;;;;;;;1857582;77;26605;-40
2022/12/08 05:05:59;;;;;;;0.30;0.30;;;;;;;;;;1852928;76;26662;-39
2022/12/08 05:08:27;;;;;;;0.40;0.40;;;;;;;;;;1853086;77;26231;-40
2022/12/08 05:10:56;;;;;;;0.35;0.35;;;;;;;;;;1857290;77;26243;-45
2022/12/08 05:13:23;;;;;;;0.33;0.33;;;;;;;;;;1852590;77;26171;-39
2022/12/08 05:15:50;;;;;;;0.20;0.20;;;;;;;;;;1853056;77;26253;-37
2022/12/08 05:18:17;;;;;;;0.20;0.20;;;;;;;;;;1853478;77;26209;-39
2022/12/08 05:20:44;;;;;;;0.30;0.30;;;;;;;;;;1851390;77;26254;-37
2022/12/08 05:23:12;;;;;;;0.20;0.20;;;;;;;;;;1854818;76;26159;-54
2022/12/08 05:25:39;;;;;;;0.30;0.30;;;;;;;;;;1854801;77;26223;-38
2022/12/08 05:28:06;;;;;;;0.30;0.30;;;;;;;;;;1854222;77;26655;-38
2022/12/08 05:30:33;;;;;;;0.37;0.37;;;;;;;;;;1851217;77;26580;-37
2022/12/08 05:33:01;;;;;;;1.17;0.28;;;;;;;;;;1849128;77;26819;-39
2022/12/08 05:35:28;;;;;;;0.20;0.20;;;;;;;;;;1856070;77;27051;-41
2022/12/08 05:37:55;;;;;;;0.30;0.30;;;;;;;;;;1856104;77;26248;-42
2022/12/08 05:40:22;;;;;;;0.20;0.20;;;;;;;;;;1849551;77;26205;-38
2022/12/08 05:42:50;;;;;;;0.30;0.30;;;;;;;;;;1855630;76;26148;-38
2022/12/08 05:45:17;;;;;;;0.20;0.20;;;;;;;;;;1859010;76;26163;-40
2022/12/08 05:47:44;;;;;;;0.30;0.30;;;;;;;;;;1853647;76;26191;-36
2022/12/08 05:50:11;;;;;;;0.10;0.10;;;;;;;;;;1857125;76;26203;-48
2022/12/08 05:52:39;;;;;;;0.30;0.30;;;;;;;;;;1855386;77;26238;-46
2022/12/08 05:55:06;;;;;;;0.25;0.20;;;;;;;;;;1857929;76;26668;-37
2022/12/08 05:57:33;;;;;;;0.30;0.30;;;;;;;;;;1864430;75;26191;-43
2022/12/08 06:00:01;;;;;;;0.20;0.20;;;;;;;;;;1867283;75;26329;-39
2022/12/08 06:02:28;;;;;;;0.23;0.23;;;;;;;;;;1861632;75;26232;-47
2022/12/08 06:04:55;;;;;;;0.90;0.30;;;;;;;;;;1855035;76;26295;-45
2022/12/08 06:07:22;;;;;;;0.25;0.25;;;;;;;;;;1860958;75;26741;-44
2022/12/08 06:09:50;;;;;;;0.28;0.28;;;;;;;;;;1863649;77;26829;-40
2022/12/08 06:12:17;;;;;;;1.10;0.20;;;;;;;;;;1859083;77;27136;-42
2022/12/08 06:14:44;;;;;;;1.15;0.25;;;;;;;;;;1859342;77;26679;-46
2022/12/08 06:17:11;;;;;;;0.65;0.20;;;;;;;;;;1855515;75;26128;-41
2022/12/08 06:19:39;;;;;;;0.23;0.23;;;;;;;;;;1863332;76;26179;-41
2022/12/08 06:22:06;;;;;;;0.40;0.40;;;;;;;;;;1861770;76;26646;-36
2022/12/08 06:24:34;;;;;;;0.20;0.20;;;;;;;;;;1863331;76;26648;-40
2022/12/08 06:27:01;;;;;;;1.25;0.20;;;;;;;;;;1862049;76;26257;-39
2022/12/08 06:29:28;;;;;;;0.30;0.23;;;;;;;;;;1865798;77;26212;-44
2022/12/08 06:31:55;;;;;;;2.22;0.40;;;;;;;;;;1865653;76;26920;-39
2022/12/08 06:34:23;;;;;;;1.35;0.30;;;;;;;;;;1861101;76;26204;-36
2022/12/08 06:36:50;;;;;;;2.72;0.40;;;;;;;;;;1862772;76;26331;-37
2022/12/08 06:39:17;;;;;;;0.47;0.30;;;;;;;;;;1857654;77;26176;-40
2022/12/08 06:44:30;;;;;;;0.50;0.50;;;;;;;;;;1858496;77;26663;-37
2022/12/08 06:46:57;;;;;;;1.10;0.20;;;;;;;;;;1865346;77;27035;-39
2022/12/08 06:49:24;;;;;;;0.98;0.30;;;;;;;;;;1864545;77;26186;-37
2022/12/08 06:51:51;;;;;;;0.62;0.40;;;;;;;;;;1865256;77;26320;-43
2022/12/08 06:54:19;;;;;;;1.30;0.50;;;;;;;;;;1863961;77;26264;-37
2022/12/08 06:56:46;;;;;;;2.05;0.30;;;;;;;;;;1864400;77;26186;-38
2022/12/08 06:59:13;;;;;;;1.55;0.33;;;;;;;;;;1872336;76;26636;-36
2022/12/08 07:01:40;;;;;;;1.17;0.40;;;;;;;;;;1865222;76;26253;-37
2022/12/08 07:04:08;;;;;;;1.17;0.40;;;;;;;;;;1872743;76;26291;-42
2022/12/08 07:06:35;;;;;;;0.37;0.37;;;;;;;;;;1873195;75;26232;-37
2022/12/08 07:09:03;;;;;;;0.78;0.50;;;;;;;;;;1872908;76;26279;-41
2022/12/08 07:11:30;;;;;;;0.30;0.30;;;;;;;;;;1869890;76;26213;-37
2022/12/08 07:13:57;;;;;;;0.20;0.20;;;;;;;;;;1872177;76;26554;-45
2022/12/08 07:16:25;;;;;;;1.37;0.30;;;;;;;;;;1868331;76;26712;-43
2022/12/08 07:18:52;;;;;;;1.10;0.40;;;;;;;;;;1872882;75;26187;-51
2022/12/08 07:21:19;;;;;;;0.30;0.30;;;;;;;;;;1871838;76;26564;-38
2022/12/08 07:23:47;;;;;;;0.30;0.30;;;;;;;;;;1870842;76;26201;-37
2022/12/08 07:26:14;;;;;;;0.20;0.20;;;;;;;;;;1872029;76;26151;-36
2022/12/08 07:28:42;;;;;;;0.60;0.37;;;;;;;;;;1872804;76;26859;-40
2022/12/08 07:31:11;;;;;;;0.28;0.25;;;;;;;;;;1872564;76;26260;-39
2022/12/08 07:33:38;;;;;;;0.88;0.50;;;;;;;;;;1863690;75;29744;-39
2022/12/08 07:36:05;;;;;;;0.60;0.30;;;;;;;;;;1860127;76;27728;-38
2022/12/08 07:38:33;;;;;;;0.20;0.20;;;;;;;;;;1872173;76;26191;-42
2022/12/08 07:41:00;;;;;;;0.50;0.50;;;;;;;;;;1873428;75;26233;-44
2022/12/08 07:43:27;;;;;;;2.58;0.50;;;;;;;;;;1872514;76;26147;-43
2022/12/08 07:45:55;;;;;;;1.70;0.40;;;;;;;;;;1872541;76;26784;-51
2022/12/08 07:48:22;;;;;;;1.37;0.40;;;;;;;;;;1871333;76;26912;-52
2022/12/08 07:50:49;;;;;;;0.30;0.30;;;;;;;;;;1874296;76;26708;-44
2022/12/08 07:53:16;;;;;;;0.30;0.30;;;;;;;;;;1872658;76;26160;-45
2022/12/08 07:55:44;;;;;;;0.28;0.28;;;;;;;;;;1874264;76;26302;-42
2022/12/08 07:58:11;;;;;;;0.30;0.30;;;;;;;;;;1866626;75;26701;-43
2022/12/08 08:00:38;;;;;;;0.30;0.30;;;;;;;;;;1864972;76;26713;-39
2022/12/08 08:03:07;;;;;;;0.42;0.30;;;;;;;;;;1861708;77;26672;-38
2022/12/08 08:05:34;;;;;;;0.30;0.30;;;;;;;;;;1861370;75;26278;-42
2022/12/08 08:08:02;;;;;;;0.30;0.30;;;;;;;;;;1859537;75;26208;-47
2022/12/08 08:10:29;;;;;;;0.25;0.25;;;;;;;;;;1853991;76;26325;-46
2022/12/08 08:13:00;;;;;;;0.45;0.30;;;;;;;;;;1853191;76;26361;-48
2022/12/08 08:15:27;;;;;;;0.30;0.30;;;;;;;;;;1856666;76;26224;-39
2022/12/08 08:17:54;;;;;;;0.45;0.40;;;;;;;;;;1856455;76;26132;-41
2022/12/08 08:20:22;;;;;;;0.40;0.40;;;;;;;;;;1854382;76;26168;-53
2022/12/08 08:22:50;;;;;;;0.30;0.30;;;;;;;;;;1855357;76;26221;-39
2022/12/08 08:25:19;;;;;;;0.30;0.30;;;;;;;;;;1857283;76;26343;-49
2022/12/08 08:27:47;;;;;;;0.93;0.37;;;;;;;;;;1854693;76;26241;-41
2022/12/08 08:30:14;;;;;;;0.20;0.20;;;;;;;;;;1856826;76;26280;-41
2022/12/08 08:32:42;;;;;;;1.80;0.30;;;;;;;;;;1851445;76;26296;-42
2022/12/08 08:35:09;;;;;;;1.25;0.40;;;;;;;;;;1856649;76;26582;-40
2022/12/08 08:37:37;;;;;;;0.42;0.42;;;;;;;;;;1855462;76;26292;-37
2022/12/08 08:40:04;;;;;;;0.65;0.30;;;;;;;;;;1853825;76;26315;-43
2022/12/08 08:42:32;;;;;;;0.35;0.35;;;;;;;;;;1851956;76;26257;-41
2022/12/08 08:44:59;;;;;;;0.40;0.40;;;;;;;;;;1854484;76;38588;-40
2022/12/08 08:47:26;;;;;;;0.42;0.40;;;;;;;;;;1854324;76;26321;-38
2022/12/08 08:49:53;;;;;;;1.00;0.20;;;;;;;;;;1858302;76;26304;-46
2022/12/08 08:52:21;;;;;;;1.25;0.30;;;;;;;;;;1855311;76;26754;-39
2022/12/08 08:54:48;;;;;;;0.30;0.30;;;;;;;;;;1854845;76;28460;-49
2022/12/08 08:57:16;;;;;;;0.25;0.25;;;;;;;;;;1858866;76;27096;-39
2022/12/08 08:59:43;;;;;;;0.40;0.40;;;;;;;;;;1826309;76;26280;-38
2022/12/08 09:02:12;;;;;;;0.30;0.30;;;;;;;;;;1818307;78;26177;-44
2022/12/08 09:04:40;;;;;;;0.40;0.40;;;;;;;;;;1808360;78;28227;-53
2022/12/08 09:07:07;;;;;;;0.28;0.28;;;;;;;;;;1821355;78;26302;-46
2022/12/08 09:09:34;;;;;;;0.30;0.30;;;;;;;;;;1814971;78;26261;-44
2022/12/08 09:12:01;;;;;;;0.30;0.30;;;;;;;;;;1816295;78;26354;-54
2022/12/08 09:14:29;;;;;;;0.30;0.30;;;;;;;;;;1819758;78;26293;-47
2022/12/08 09:16:56;;;;;;;0.30;0.30;;;;;;;;;;1821045;78;26238;-49
2022/12/08 09:19:23;;;;;;;0.30;0.30;;;;;;;;;;1820678;78;26271;-46
2022/12/08 09:21:50;;;;;;;0.25;0.25;;;;;;;;;;1823148;78;26710;-46
2022/12/08 09:24:18;;;;;;;0.40;0.40;;;;;;;;;;1819700;78;26205;-41
2022/12/08 09:26:45;;;;;;;0.30;0.30;;;;;;;;;;1816548;78;26241;-52
2022/12/08 09:29:13;;;;;;;0.75;0.30;;;;;;;;;;1819053;78;26787;-41
2022/12/08 09:31:41;;;;;;;0.40;0.40;;;;;;;;;;1817490;78;26187;-45
2022/12/08 09:34:08;;;;;;;1.30;0.50;;;;;;;;;;1818607;78;26623;-47
2022/12/08 09:36:35;;;;;;;0.30;0.30;;;;;;;;;;1816424;78;26659;-39
2022/12/08 09:39:03;;;;;;;0.37;0.30;;;;;;;;;;1821784;78;26287;-39
2022/12/08 09:41:38;;;;;;;0.42;0.42;;;;;;;;;;1818468;78;26276;-45
2022/12/08 09:44:23;;;;;;;0.35;0.35;;;;;;;;;;1820442;78;26275;-49
2022/12/08 09:46:51;;;;;;;0.40;0.40;;;;;;;;;;1817946;78;26265;-38
2022/12/08 09:49:20;;;;;;;1.20;0.30;;;;;;;;;;1814390;78;26261;-51
2022/12/08 09:51:48;;;;;;;0.30;0.30;;;;;;;;;;1820894;78;26722;-53
2022/12/08 09:54:19;;;;;;;0.30;0.30;;;;;;;;;;1820025;78;26277;-41
2022/12/08 09:56:48;;;;;;;0.30;0.30;;;;;;;;;;1814970;78;26386;-52
2022/12/08 09:59:16;;;;;;;0.30;0.30;;;;;;;;;;1829303;76;26256;-43
2022/12/08 10:01:44;;;;;;;0.30;0.30;;;;;;;;;;1844261;76;26175;-39
2022/12/08 10:04:12;;;;;;;0.20;0.20;;;;;;;;;;1845918;77;26254;-37
2022/12/08 10:06:41;;;;;;;2.90;0.47;;;;;;;;;;1845641;77;26231;-40
2022/12/08 10:09:19;;;;;;;0.30;0.30;;;;;;;;;;1844993;77;22312;-44
2022/12/08 10:11:48;;;;;;;0.40;0.40;;;;;;;;;;1833192;76;28538;-42
2022/12/08 10:14:17;;;;;;;0.30;0.30;;;;;;;;;;1850850;77;26378;-53
2022/12/08 10:16:45;;;;;;;0.23;0.23;;;;;;;;;;1844685;77;26210;-44
2022/12/08 10:19:17;;;;;;;2.60;0.40;;;;;;;;;;1844804;76;26237;-42
2022/12/08 10:21:45;;;;;;;0.37;0.37;;;;;;;;;;1844228;77;26252;-45
2022/12/08 10:24:13;;;;;;;1.37;0.50;;;;;;;;;;1846722;77;26144;-37
2022/12/08 10:26:41;;;;;;;0.47;0.47;;;;;;;;;;1846298;77;26305;-50
2022/12/08 10:29:10;;;;;;;0.50;0.50;;;;;;;;;;1841463;77;26339;-42
2022/12/08 10:31:37;;;;;;;0.30;0.30;;;;;;;;;;1844236;77;26250;-40
2022/12/08 10:34:12;;;;;;;1.10;0.57;;;;;;;;;;1846124;76;26636;-46
2022/12/08 10:36:49;;;;;;;1.27;0.55;;;;;;;;;;1830450;77;26259;-53
2022/12/08 10:39:21;;;;;;;1.45;0.62;;;;;;;;;;1848612;77;26202;-38
2022/12/08 10:41:50;;;;;;;0.50;0.50;;;;;;;;;;1843026;77;26171;-39
2022/12/08 10:44:18;;;;;;;1.40;0.30;;;;;;;;;;1845082;76;26250;-45
2022/12/08 10:46:45;;;;;;;0.60;0.50;;;;;;;;;;1846359;77;26848;-42
2022/12/08 10:49:14;;;;;;;0.93;0.60;;;;;;;;;;1849969;77;26235;-45
2022/12/08 10:51:42;;;;;;;1.25;0.40;;;;;;;;;;1843624;77;26261;-35
2022/12/08 10:54:11;;;;;;;0.95;0.60;;;;;;;;;;1848844;76;26210;-43
2022/12/08 10:56:38;;;;;;;0.50;0.50;;;;;;;;;;1833361;77;26223;-51
2022/12/08 10:59:07;;;;;;;0.50;0.50;;;;;;;;;;1848554;76;26193;-43
2022/12/08 11:01:35;;;;;;;0.62;0.60;;;;;;;;;;1854041;76;26898;-43
2022/12/08 11:04:04;;;;;;;1.67;0.50;;;;;;;;;;1854316;76;26893;-46
2022/12/08 11:06:33;;;;;;;1.65;0.50;;;;;;;;;;1855225;76;26267;-47
2022/12/08 11:09:04;;;;;;;1.55;0.50;;;;;;;;;;1851310;76;26312;-42
2022/12/08 11:11:39;;;;;;;0.65;0.57;;;;;;;;;;1852592;76;26214;-42
2022/12/08 11:14:08;;;;;;;0.50;0.50;;;;;;;;;;1855094;76;26725;-45
2022/12/08 11:16:35;;;;;;;0.75;0.53;;;;;;;;;;1854248;76;26250;-47
2022/12/08 11:19:08;;;;;;;0.60;0.60;;;;;;;;;;1855057;76;27091;-48
2022/12/08 11:21:37;;;;;;;0.50;0.50;;;;;;;;;;1856151;76;26228;-40
2022/12/08 11:24:05;;;;;;;0.50;0.50;;;;;;;;;;1856207;76;26217;-40
2022/12/08 11:26:34;;;;;;;0.55;0.50;;;;;;;;;;1852791;76;26261;-37
2022/12/08 11:29:02;;;;;;;0.60;0.60;;;;;;;;;;1854578;75;26246;-42
2022/12/08 11:31:37;;;;;;;0.45;0.45;;;;;;;;;;1854524;75;26909;-39
2022/12/08 11:34:05;;;;;;;0.45;0.45;;;;;;;;;;1857792;76;26168;-40
2022/12/08 11:36:34;;;;;;;0.53;0.53;;;;;;;;;;1855190;76;26675;-46
2022/12/08 11:39:02;;;;;;;0.57;0.57;;;;;;;;;;1855634;76;26810;-46
2022/12/08 11:41:31;;;;;;;0.37;0.37;;;;;;;;;;1853481;76;26742;-40
2022/12/08 11:44:00;;;;;;;0.50;0.50;;;;;;;;;;1855544;76;26253;-42
2022/12/08 11:46:29;;;;;;;0.47;0.47;;;;;;;;;;1854623;76;26195;-46
2022/12/08 11:48:58;;;;;;;0.60;0.60;;;;;;;;;;1852971;76;26207;-50
2022/12/08 11:51:35;;;;;;;0.50;0.50;;;;;;;;;;1852724;76;26281;-45
2022/12/08 11:54:07;;;;;;;0.50;0.50;;;;;;;;;;1854620;76;26208;-43
2022/12/08 11:56:36;;;;;;;0.50;0.50;;;;;;;;;;1854095;76;26171;-41
2022/12/08 11:59:05;;;;;;;0.40;0.40;;;;;;;;;;1852233;76;26647;-43
2022/12/08 12:01:32;;;;;;;0.50;0.50;;;;;;;;;;1838452;76;26655;-42
2022/12/08 12:04:01;;;;;;;0.78;0.62;;;;;;;;;;1852976;76;26767;-55
2022/12/08 12:06:42;;;;;;;0.50;0.50;;;;;;;;;;1854016;76;26706;-44
2022/12/08 12:09:13;;;;;;;0.50;0.50;;;;;;;;;;1854114;75;26788;-40
2022/12/08 12:14:44;;;;;;;0.50;0.50;;;;;;;;;;1858079;76;26213;-43
2022/12/08 12:17:31;;;;;;;1.12;0.50;;;;;;;;;;1851602;75;26937;-50
2022/12/08 12:20:00;;;;;;;0.40;0.40;;;;;;;;;;1857597;76;26229;-51
2022/12/08 12:22:29;;;;;;;0.37;0.37;;;;;;;;;;1853897;75;26707;-48
2022/12/08 12:24:56;;;;;;;0.62;0.50;;;;;;;;;;1853225;76;26646;-54
2022/12/08 12:27:33;;;;;;;1.20;0.60;;;;;;;;;;1850542;76;26266;-39
2022/12/08 12:30:02;;;;;;;2.10;0.40;;;;;;;;;;1856525;75;26747;-40
2022/12/08 12:32:30;;;;;;;0.50;0.50;;;;;;;;;;1855940;75;26289;-42
2022/12/08 12:34:59;;;;;;;0.75;0.50;;;;;;;;;;1856193;75;26197;-41
2022/12/08 12:37:37;;;;;;;0.62;0.62;;;;;;;;;;1855559;76;26249;-40
2022/12/08 12:40:06;;;;;;;0.70;0.70;;;;;;;;;;1856188;76;26727;-44
2022/12/08 12:42:35;;;;;;;0.40;0.40;;;;;;;;;;1854392;76;26898;-44
2022/12/08 12:45:10;;;;;;;0.42;0.42;;;;;;;;;;1852491;76;26245;-43
2022/12/08 12:47:48;;;;;;;0.40;0.40;;;;;;;;;;1854846;76;26258;-36
2022/12/08 12:50:37;;;;;;;0.47;0.47;;;;;;;;;;1852779;76;26293;-40
2022/12/08 12:53:06;;;;;;;0.72;0.40;;;;;;;;;;1856776;76;26647;-52
2022/12/08 12:55:46;;;;;;;0.45;0.45;;;;;;;;;;1854557;76;26183;-43
2022/12/08 12:58:21;;;;;;;0.53;0.50;;;;;;;;;;1854570;76;26392;-39
2022/12/08 13:00:48;;;;;;;1.27;0.60;;;;;;;;;;1853233;76;26253;-36
2022/12/08 13:03:16;;;;;;;1.60;0.50;;;;;;;;;;1856213;76;25903;-43
2022/12/08 13:05:48;;;;;;;0.47;0.47;;;;;;;;;;1852456;76;26268;-38
2022/12/08 13:08:19;;;;;;;0.50;0.50;;;;;;;;;;1855213;76;26204;-36
2022/12/08 13:10:51;;;;;;;0.30;0.30;;;;;;;;;;1853837;76;26392;-42
2022/12/08 13:13:18;;;;;;;0.35;0.35;;;;;;;;;;1855436;76;26689;-37
2022/12/08 13:15:47;;;;;;;1.70;0.50;;;;;;;;;;1857176;76;26250;-51
2022/12/08 13:18:16;;;;;;;0.40;0.40;;;;;;;;;;1856033;76;26202;-47
2022/12/08 13:20:45;;;;;;;0.47;0.47;;;;;;;;;;1854102;75;26436;-37
2022/12/08 13:23:26;;;;;;;0.60;0.60;;;;;;;;;;1855939;76;26655;-44
2022/12/08 13:25:54;;;;;;;0.60;0.57;;;;;;;;;;1854481;76;26219;-36
2022/12/08 13:28:23;;;;;;;1.12;0.50;;;;;;;;;;1849750;75;26995;-55
2022/12/08 13:30:52;;;;;;;0.40;0.40;;;;;;;;;;1856787;76;26281;-38
2022/12/08 13:33:39;;;;;;;0.40;0.40;;;;;;;;;;1856826;76;26640;-57
2022/12/08 13:36:11;;;;;;;0.57;0.57;;;;;;;;;;1852129;76;26188;-40
2022/12/08 13:38:38;;;;;;;1.42;0.60;;;;;;;;;;1852811;76;26231;-39
2022/12/08 13:41:07;;;;;;;0.53;0.50;;;;;;;;;;1856086;76;26202;-56
2022/12/08 13:43:54;;;;;;;0.47;0.45;;;;;;;;;;1856199;76;26269;-44
2022/12/08 13:46:23;;;;;;;1.85;0.40;;;;;;;;;;1852681;76;26493;-37
2022/12/08 13:48:56;;;;;;;0.33;0.33;;;;;;;;;;1855821;76;26620;-46
2022/12/08 13:51:24;;;;;;;0.30;0.30;;;;;;;;;;1850169;76;26778;-37
2022/12/08 13:54:02;;;;;;;0.40;0.40;;;;;;;;;;1856764;76;26207;-38
2022/12/08 13:56:29;;;;;;;0.40;0.40;;;;;;;;;;1855617;76;26340;-36
2022/12/08 13:59:07;;;;;;;0.40;0.40;;;;;;;;;;1854063;76;26600;-40
2022/12/08 14:01:36;;;;;;;0.42;0.42;;;;;;;;;;1853116;75;26306;-36
2022/12/08 14:04:03;;;;;;;0.45;0.45;;;;;;;;;;1857048;76;26207;-40
2022/12/08 14:06:32;;;;;;;0.53;0.53;;;;;;;;;;1852947;75;26218;-40
2022/12/08 14:09:00;;;;;;;0.40;0.40;;;;;;;;;;1851570;76;26644;-40
2022/12/08 14:11:35;;;;;;;0.50;0.50;;;;;;;;;;1855153;76;26715;-42
2022/12/08 14:14:07;;;;;;;1.35;0.40;;;;;;;;;;1853944;76;26331;-37
2022/12/08 14:16:41;;;;;;;0.62;0.50;;;;;;;;;;1849283;76;26284;-36
2022/12/08 14:19:15;;;;;;;1.70;0.60;;;;;;;;;;1855072;76;26257;-37
2022/12/08 14:21:47;;;;;;;0.60;0.60;;;;;;;;;;1852269;76;26597;-41
2022/12/08 14:24:14;;;;;;;0.60;0.60;;;;;;;;;;1852826;76;26276;-37
2022/12/08 14:26:43;;;;;;;0.53;0.53;;;;;;;;;;1848814;76;26289;-36
2022/12/08 14:29:11;;;;;;;0.50;0.50;;;;;;;;;;1854146;75;26262;-49
2022/12/08 14:31:39;;;;;;;0.40;0.40;;;;;;;;;;1853762;76;26752;-43
2022/12/08 14:34:08;;;;;;;0.40;0.40;;;;;;;;;;1850428;76;26225;-38
2022/12/08 14:36:35;;;;;;;0.80;0.60;;;;;;;;;;1855257;76;26215;-35
2022/12/08 14:39:03;;;;;;;0.40;0.40;;;;;;;;;;1856149;76;26604;-38
2022/12/08 14:41:32;;;;;;;0.40;0.40;;;;;;;;;;1854243;76;26312;-36
2022/12/08 14:44:00;;;;;;;0.60;0.60;;;;;;;;;;1853051;76;26119;-44
2022/12/08 14:46:28;;;;;;;1.00;0.60;;;;;;;;;;1853162;76;26713;-49
2022/12/08 14:48:56;;;;;;;0.40;0.40;;;;;;;;;;1857054;76;26140;-39
2022/12/08 14:51:25;;;;;;;0.62;0.62;;;;;;;;;;1854395;76;26306;-36
2022/12/08 14:53:54;;;;;;;0.60;0.60;;;;;;;;;;1853392;76;26577;-35
2022/12/08 14:56:23;;;;;;;0.70;0.70;;;;;;;;;;1852129;76;26227;-52
2022/12/08 14:58:52;;;;;;;0.60;0.60;;;;;;;;;;1856399;76;26669;-39
2022/12/08 15:01:21;;;;;;;0.60;0.60;;;;;;;;;;1853299;76;26772;-35
2022/12/08 15:03:49;;;;;;;1.02;0.60;;;;;;;;;;1855976;76;26194;-37
2022/12/08 15:06:18;;;;;;;0.60;0.60;;;;;;;;;;1854801;76;26907;-41